メインページ
METAR-TAF:

METAR-TAF

空港 :

モントリオール・ミラベル国際空港

モントリオール・ミラベル, ケベック州, カナダ

緯度: 45-41N, 経度: 074-02W, 海抜: 82m

現時点の気象観測

当レポートは48分前の05:00(UTC)に作成
北/北東の風 4kt、北/北西から東/北東の間で変化する
気温 4°C
湿度 75%
気圧 1017 hPa
視程: 32.2km
高度8300ftの千切れ雲あり

METAR: CYMX 040500Z 03004KT 340V070 20SM BKN083 04/M00 A3004 RMK AC6 SLP178

時間: 01:48 (05:48 UTC)

予報

当レポートは6時間10分前の23:38(UTC)に作成
予報は04日の 00時(UTC)から 04日の 24時(UTC)まで有効
北東の風 10kt
視程: 10km
高度1500ftの雲はほとんどない
高度4000ftの千切れ雲あり
04日の 03時(UTC)から 04日の 09時(UTC)まで一時的に
視程: 9.7km
高度1500ftの千切れ雲あり
高度4000ftの曇り
小霧雨, 靄
確率 30%
04日の 06時(UTC)から 04日の 09時(UTC)まで
視程: 8.0km
高度800ftの曇り
小霧雨, 靄
04日の 0900時(UTC)から
北東の風 6kt
視程: 10km
高度1000ftの曇り
04日の 09時(UTC)から 04日の 14時(UTC)まで一時的に
視程: 8.0km
高度800ftの曇り
小霧雨, 靄
04日の 1400時(UTC)から
北東の風 6kt
視程: 10km
高度1200ftの千切れ雲あり
高度2500ftの曇り
04日の 1800時(UTC)から
北東の風 5kt
視程: 10km
高度2000ftの千切れ雲あり
04日の 19時(UTC)から 04日の 21時(UTC)まで徐々に
変向風 3kt

TAF: CYMX 032338Z 0400/0424 05010KT P6SM FEW015 BKN040 TEMPO 0403/0409 6SM -DZ BR BKN015 OVC040 PROB30 0406/0409 5SM -DZ BR OVC008 FM040900 05006KT P6SM OVC010 TEMPO 0409/0414 5SM -DZ BR OVC008 FM041400 04006KT P6SM BKN012 OVC025 FM041800 04005KT P6SM BKN020 BECMG 0419/0421 VRB03KT RMK NXT FCST BY 040600Z

4,000以上の空港の気象観測と天気予報(METAR報とTAF報)

利用可能な観測所は地図上に黄色い丸と赤い丸で示す。

丸の上にカーソルを重ねると観測所名を参照できる。

次にクリックすると気象観測と天気予報を参照できる。

マップの切り替え:黒色「×」印の緑ボタンをクリックして拡大、「-」印の緑ボタンをクリックして縮小、緑色の三角印をクリックして隣りの地図に切り替え


METAR-TAF: